Terminal Aerodrome Forecast
Issued by NWS Lake Charles, LA

Home | Current Version | Previous Version | Text Only | Print | Product List | Glossary On
Versions: 1 2 3 4 5 6 7 8 9 10 11 12 13 14 15 16 17 18
064
FTUS44 KLCH 161545 AAA
TAFAEX
TAF AMD
KAEX 161545Z 1616/1712 14010KT 5SM BR VCSH OVC007
      TEMPO 1616/1618 P6SM NSW SCT007 OVC025
     FM161800 17012KT P6SM VCSH OVC025
     FM170000 16008KT P6SM VCSH OVC015=

USA.gov is the U.S. government's official web portal to all federal, state and local government web resources and services.